createdAt,value
2023-01-08T00:01:17.857Z,16.80
2023-01-08T00:03:45.792Z,17.17
2023-01-08T00:06:16.887Z,17.67
2023-01-08T00:08:44.581Z,17.30
2023-01-08T00:11:12.244Z,16.70
2023-01-08T00:13:39.295Z,16.60
2023-01-08T00:16:12.365Z,15.20
2023-01-08T00:18:39.468Z,18.50
2023-01-08T00:21:07.424Z,18.00
2023-01-08T00:23:35.479Z,18.30
2023-01-08T00:26:07.602Z,17.97
2023-01-08T00:28:35.766Z,17.00
2023-01-08T00:31:10.814Z,15.40
2023-01-08T00:33:39.000Z,17.10
2023-01-08T00:36:13.917Z,16.87
2023-01-08T00:38:41.559Z,18.10
2023-01-08T00:41:08.613Z,16.40
2023-01-08T00:43:35.756Z,16.27
2023-01-08T00:46:03.336Z,16.07
2023-01-08T00:48:31.338Z,15.30
2023-01-08T00:50:58.252Z,15.53
2023-01-08T00:53:26.246Z,17.00
2023-01-08T00:56:04.239Z,15.90
2023-01-08T00:58:31.256Z,14.23
2023-01-08T01:00:58.536Z,14.83
2023-01-08T01:03:25.757Z,16.50
2023-01-08T01:06:06.428Z,15.63
2023-01-08T01:08:34.640Z,15.63
2023-01-08T01:11:06.937Z,16.40
2023-01-08T01:13:33.835Z,14.83
2023-01-08T01:16:02.033Z,14.90
2023-01-08T01:18:30.134Z,14.00
2023-01-08T01:20:57.200Z,14.20
2023-01-08T01:23:24.208Z,14.70
2023-01-08T01:25:51.194Z,15.20
2023-01-08T01:28:18.191Z,14.50
2023-01-08T01:30:45.198Z,14.30
2023-01-08T01:33:12.076Z,14.93
2023-01-08T01:35:39.020Z,14.00
2023-01-08T01:38:05.926Z,13.73
2023-01-08T01:40:32.857Z,14.10
2023-01-08T01:42:59.890Z,14.60
2023-01-08T01:45:28.020Z,15.67
2023-01-08T01:48:00.556Z,13.50
2023-01-08T01:50:36.751Z,14.30
2023-01-08T01:53:09.766Z,14.50
2023-01-08T01:55:41.328Z,13.90
2023-01-08T01:58:16.776Z,13.63
2023-01-08T02:00:44.452Z,12.97
2023-01-08T02:03:14.537Z,12.97
2023-01-08T02:06:19.431Z,13.50
2023-01-08T02:09:33.964Z,12.50
2023-01-08T02:12:17.002Z,12.87
2023-01-08T02:15:08.173Z,14.33
2023-01-08T02:18:08.220Z,14.10
2023-01-08T02:20:44.027Z,14.50
2023-01-08T02:23:22.271Z,13.83
2023-01-08T02:26:04.342Z,13.80
2023-01-08T02:28:45.805Z,14.00
2023-01-08T02:31:14.778Z,14.10
2023-01-08T02:33:42.163Z,15.00
2023-01-08T02:36:36.139Z,12.87
2023-01-08T02:39:16.547Z,13.83
2023-01-08T02:41:53.722Z,15.30
2023-01-08T02:44:51.203Z,13.73
2023-01-08T02:47:42.356Z,15.03
2023-01-08T02:50:26.381Z,14.53
2023-01-08T02:53:12.575Z,14.23
2023-01-08T02:55:43.210Z,14.80
2023-01-08T02:58:11.606Z,14.10
2023-01-08T03:00:41.072Z,16.27
2023-01-08T03:03:15.870Z,16.60
2023-01-08T03:05:47.442Z,14.23
2023-01-08T03:08:14.765Z,13.33
2023-01-08T03:10:46.708Z,14.90
2023-01-08T03:13:23.117Z,14.50
2023-01-08T03:15:57.311Z,14.50
2023-01-08T03:18:34.274Z,16.20
2023-01-08T03:21:03.582Z,15.33
2023-01-08T03:23:35.057Z,14.20
2023-01-08T03:26:05.286Z,15.80
2023-01-08T03:28:39.245Z,15.67
2023-01-08T03:31:07.237Z,15.90
2023-01-08T03:33:36.628Z,14.70
2023-01-08T03:36:06.737Z,14.40
2023-01-08T03:38:39.513Z,15.63
2023-01-08T03:41:14.451Z,15.33
2023-01-08T03:43:41.447Z,14.53
2023-01-08T03:46:16.986Z,15.20
2023-01-08T03:48:44.936Z,16.00
2023-01-08T03:51:11.868Z,14.77
2023-01-08T03:53:38.914Z,15.50
2023-01-08T03:56:06.435Z,16.10
2023-01-08T03:58:33.351Z,15.40
2023-01-08T04:01:01.119Z,16.93
2023-01-08T04:03:28.034Z,17.07
2023-01-08T04:05:55.078Z,16.10
2023-01-08T04:08:21.948Z,16.47
2023-01-08T04:10:48.797Z,17.63
2023-01-08T04:13:15.680Z,15.77
2023-01-08T04:15:49.505Z,17.17
2023-01-08T04:18:17.751Z,16.53
2023-01-08T04:20:48.519Z,16.00
2023-01-08T04:23:15.783Z,15.87
2023-01-08T04:25:42.626Z,16.13
2023-01-08T04:28:09.648Z,15.03
2023-01-08T04:30:37.495Z,16.20
2023-01-08T04:33:04.496Z,16.57
2023-01-08T04:35:31.523Z,17.10
2023-01-08T04:37:58.398Z,16.40
2023-01-08T04:40:25.317Z,15.90
2023-01-08T04:42:52.172Z,15.50
2023-01-08T04:45:19.566Z,17.13
2023-01-08T04:47:46.559Z,17.77
2023-01-08T04:50:13.503Z,16.80
2023-01-08T04:52:40.443Z,17.63
2023-01-08T04:55:07.823Z,16.93
2023-01-08T04:57:34.858Z,16.10
2023-01-08T05:00:01.777Z,17.67
2023-01-08T05:02:29.644Z,17.80
2023-01-08T05:04:56.664Z,18.57
2023-01-08T05:07:23.673Z,17.90
2023-01-08T05:09:50.518Z,17.00
2023-01-08T05:12:17.661Z,18.40
2023-01-08T05:14:44.564Z,17.07
2023-01-08T05:17:11.580Z,18.53
2023-01-08T05:19:38.582Z,17.33
2023-01-08T05:22:05.623Z,16.57
2023-01-08T05:24:32.619Z,16.47
2023-01-08T05:26:59.484Z,18.30
2023-01-08T05:29:26.450Z,17.00
2023-01-08T05:31:53.711Z,16.37
2023-01-08T05:34:20.733Z,16.03
2023-01-08T05:36:47.914Z,15.50
2023-01-08T05:39:14.944Z,14.77
2023-01-08T05:41:41.883Z,15.07
2023-01-08T05:44:10.374Z,15.90
2023-01-08T05:46:37.620Z,16.23
2023-01-08T05:49:04.571Z,14.27
2023-01-08T05:51:31.462Z,15.27
2023-01-08T05:53:58.437Z,13.17
2023-01-08T05:56:25.335Z,15.17
2023-01-08T05:58:55.383Z,14.20
2023-01-08T06:01:22.511Z,13.87
2023-01-08T06:03:49.518Z,15.70
2023-01-08T06:06:16.759Z,14.30
2023-01-08T06:08:43.822Z,14.23
2023-01-08T06:11:12.104Z,14.23
2023-01-08T06:13:43.460Z,14.43
2023-01-08T06:16:11.724Z,13.60
2023-01-08T06:18:38.871Z,14.60
2023-01-08T06:21:06.371Z,13.10
2023-01-08T06:23:33.832Z,13.50
2023-01-08T06:26:04.132Z,13.50
2023-01-08T06:28:31.996Z,14.97
2023-01-08T06:31:01.129Z,12.83
2023-01-08T06:33:29.084Z,12.27
2023-01-08T06:36:01.103Z,12.20
2023-01-08T06:38:34.748Z,11.77
2023-01-08T06:41:08.515Z,10.97
2023-01-08T06:43:36.708Z,10.57
2023-01-08T06:46:05.446Z,10.53
2023-01-08T06:48:32.449Z,11.07
2023-01-08T06:51:04.007Z,10.40
2023-01-08T06:53:31.152Z,10.10
2023-01-08T06:55:58.866Z,10.43
2023-01-08T06:58:30.327Z,10.00
2023-01-08T07:00:59.078Z,9.63
2023-01-08T07:03:26.538Z,9.90
2023-01-08T07:05:53.521Z,9.80
2023-01-08T07:08:20.506Z,11.03
2023-01-08T07:10:47.571Z,10.53
2023-01-08T07:13:14.767Z,10.30
2023-01-08T07:15:43.400Z,9.37
2023-01-08T07:18:12.045Z,9.70
2023-01-08T07:20:39.645Z,11.00
2023-01-08T07:23:10.708Z,10.87
2023-01-08T07:25:37.788Z,10.27
2023-01-08T07:28:04.919Z,10.30
2023-01-08T07:30:31.816Z,10.43
2023-01-08T07:33:01.101Z,10.70
2023-01-08T07:35:28.698Z,14.50
2023-01-08T07:37:56.067Z,13.73
2023-01-08T07:40:23.034Z,11.87
2023-01-08T07:43:01.712Z,11.17
2023-01-08T07:45:29.663Z,10.80
2023-01-08T07:48:00.617Z,10.13
2023-01-08T07:50:28.603Z,12.20
2023-01-08T07:53:02.246Z,10.70
2023-01-08T07:55:31.382Z,11.30
2023-01-08T07:57:58.954Z,11.10
2023-01-08T08:00:28.926Z,10.60
2023-01-08T08:02:56.020Z,11.53
2023-01-08T08:05:23.395Z,12.60
2023-01-08T08:07:50.259Z,12.50
2023-01-08T08:10:17.229Z,13.00
2023-01-08T08:12:45.722Z,11.20
2023-01-08T08:15:12.668Z,12.00
2023-01-08T08:17:39.560Z,11.37
2023-01-08T08:20:07.242Z,10.63
2023-01-08T08:22:34.132Z,10.77
2023-01-08T08:25:01.053Z,12.03
2023-01-08T08:27:28.051Z,12.07
2023-01-08T08:29:54.976Z,11.80
2023-01-08T08:32:21.896Z,15.03
2023-01-08T08:34:50.663Z,12.97
2023-01-08T08:37:17.579Z,11.83
2023-01-08T08:39:44.504Z,12.60
2023-01-08T08:42:11.437Z,15.00
2023-01-08T08:44:38.521Z,13.23
2023-01-08T08:47:09.141Z,13.77
2023-01-08T08:49:36.540Z,14.57
2023-01-08T08:52:04.642Z,14.67
2023-01-08T08:54:31.840Z,14.13
2023-01-08T08:56:58.772Z,14.60
2023-01-08T08:59:26.011Z,16.10
2023-01-08T09:01:53.055Z,15.80
2023-01-08T09:04:20.107Z,19.23
2023-01-08T09:06:47.075Z,16.23
2023-01-08T09:09:15.559Z,17.40
2023-01-08T09:11:42.533Z,14.50
2023-01-08T09:14:10.391Z,14.73
2023-01-08T09:16:37.508Z,15.43
2023-01-08T09:19:06.502Z,14.73
2023-01-08T09:21:33.691Z,13.77
2023-01-08T09:24:00.643Z,14.77
2023-01-08T09:26:28.757Z,16.70
2023-01-08T09:28:58.163Z,38.63
2023-01-08T09:31:26.636Z,24.90
2023-01-08T09:33:53.687Z,16.60
2023-01-08T09:36:20.868Z,15.60
2023-01-08T09:38:47.763Z,12.60
2023-01-08T09:41:30.739Z,13.50
2023-01-08T09:44:00.488Z,11.23
2023-01-08T09:46:29.101Z,11.60
2023-01-08T09:49:01.955Z,12.40
2023-01-08T09:51:35.651Z,10.47
2023-01-08T09:54:04.331Z,10.97
2023-01-08T09:56:33.877Z,10.97
2023-01-08T09:59:03.926Z,12.07
2023-01-08T10:01:36.399Z,12.90
2023-01-08T10:04:26.797Z,13.60
2023-01-08T10:07:14.234Z,12.83
2023-01-08T10:09:41.385Z,14.50
2023-01-08T10:12:13.110Z,14.43
2023-01-08T10:14:48.091Z,13.20
2023-01-08T10:17:27.222Z,13.60
2023-01-08T10:19:54.521Z,12.70
2023-01-08T10:22:25.277Z,12.17
2023-01-08T10:24:52.623Z,12.70
2023-01-08T10:27:23.460Z,11.87
2023-01-08T10:29:51.867Z,14.90
2023-01-08T10:32:29.459Z,13.73
2023-01-08T10:34:58.193Z,12.30
2023-01-08T10:37:29.105Z,10.70
2023-01-08T10:40:14.456Z,11.07
2023-01-08T10:42:41.424Z,14.00
2023-01-08T10:45:25.612Z,12.57
2023-01-08T10:48:00.876Z,10.73
2023-01-08T10:50:34.131Z,10.20
2023-01-08T10:53:06.870Z,10.00
2023-01-08T10:55:37.553Z,9.80
2023-01-08T10:58:10.432Z,10.30
2023-01-08T11:00:38.569Z,10.50
2023-01-08T11:03:23.319Z,9.80
2023-01-08T11:05:50.354Z,10.30
2023-01-08T11:08:22.767Z,9.63
2023-01-08T11:10:59.356Z,9.93
2023-01-08T11:13:27.370Z,9.60
2023-01-08T11:16:07.492Z,10.30
2023-01-08T11:18:50.143Z,11.13
2023-01-08T11:21:22.908Z,10.10
2023-01-08T11:24:21.592Z,11.40
2023-01-08T11:27:00.046Z,9.77
2023-01-08T11:29:44.488Z,8.67
2023-01-08T11:32:32.348Z,9.63
2023-01-08T11:35:17.455Z,8.50
2023-01-08T11:37:52.385Z,8.60
2023-01-08T11:40:52.003Z,8.10
2023-01-08T11:43:36.975Z,9.17
2023-01-08T11:46:36.124Z,8.63
2023-01-08T11:49:55.593Z,8.43
2023-01-08T11:53:15.181Z,14.07
2023-01-08T11:56:22.510Z,19.10
2023-01-08T11:59:16.583Z,10.83
2023-01-08T12:01:53.404Z,9.03
2023-01-08T12:04:50.424Z,9.10
2023-01-08T12:07:49.945Z,8.37
2023-01-08T12:10:41.630Z,8.43
2023-01-08T12:13:47.657Z,8.77
2023-01-08T12:16:42.316Z,8.40
2023-01-08T12:19:31.651Z,8.87
2023-01-08T12:22:12.916Z,9.20
2023-01-08T12:25:22.070Z,8.60
2023-01-08T12:28:16.649Z,7.40
2023-01-08T12:31:09.592Z,10.90
2023-01-08T12:33:52.740Z,13.13
2023-01-08T12:36:29.987Z,9.10
2023-01-08T12:39:04.496Z,8.50
2023-01-08T12:41:35.344Z,9.03
2023-01-08T12:44:05.048Z,8.33
2023-01-08T12:46:34.934Z,8.60
2023-01-08T12:49:05.491Z,8.27
2023-01-08T12:51:50.426Z,7.57
2023-01-08T12:54:32.333Z,7.93
2023-01-08T12:57:24.295Z,8.70
2023-01-08T13:00:38.025Z,7.70
2023-01-08T13:03:12.291Z,8.10
2023-01-08T13:05:39.417Z,8.27
2023-01-08T13:08:28.843Z,8.73
2023-01-08T13:10:56.639Z,8.50
2023-01-08T13:13:41.867Z,8.70
2023-01-08T13:16:14.636Z,9.10
2023-01-08T13:18:59.969Z,8.70
2023-01-08T13:21:39.463Z,8.43
2023-01-08T13:24:36.948Z,7.53
2023-01-08T13:27:19.071Z,8.53
2023-01-08T13:29:51.458Z,10.07
2023-01-08T13:32:48.824Z,10.83
2023-01-08T13:35:15.571Z,11.10
2023-01-08T13:37:52.077Z,10.43
2023-01-08T13:40:43.858Z,11.10
2023-01-08T13:43:29.415Z,12.07
2023-01-08T13:46:02.363Z,11.70
2023-01-08T13:48:35.729Z,13.07
2023-01-08T13:51:03.131Z,13.33
2023-01-08T13:53:30.384Z,11.50
2023-01-08T13:56:01.753Z,12.03
2023-01-08T13:58:36.674Z,12.40
2023-01-08T14:01:05.324Z,17.10
2023-01-08T14:03:38.578Z,14.67
2023-01-08T14:06:27.303Z,11.97
2023-01-08T14:09:00.792Z,13.00
2023-01-08T14:11:37.693Z,11.70
2023-01-08T14:14:05.086Z,12.47
2023-01-08T14:16:33.387Z,13.00
2023-01-08T14:19:01.804Z,14.10
2023-01-08T14:21:29.728Z,12.47
2023-01-08T14:23:56.739Z,12.00
2023-01-08T14:26:38.795Z,12.67
2023-01-08T14:29:16.167Z,12.30
2023-01-08T14:31:53.397Z,12.27
2023-01-08T14:34:27.167Z,10.70
2023-01-08T14:36:56.239Z,11.43
2023-01-08T14:39:34.917Z,10.37
2023-01-08T14:42:44.314Z,10.77
2023-01-08T14:45:32.263Z,10.90
2023-01-08T14:48:12.346Z,11.33
2023-01-08T14:50:45.701Z,10.33
2023-01-08T14:53:26.428Z,10.97
2023-01-08T14:55:55.842Z,10.27
2023-01-08T14:58:26.971Z,11.43
2023-01-08T15:01:05.045Z,11.00
2023-01-08T15:03:39.970Z,11.90
2023-01-08T15:06:07.968Z,12.60
2023-01-08T15:08:40.394Z,31.00
2023-01-08T15:11:19.304Z,27.50
2023-01-08T15:13:48.538Z,27.57
2023-01-08T15:16:33.357Z,15.07
2023-01-08T15:19:17.813Z,15.13
2023-01-08T15:21:49.410Z,15.10
2023-01-08T15:24:34.967Z,14.67
2023-01-08T15:27:09.950Z,13.20
2023-01-08T15:30:00.814Z,13.67
2023-01-08T15:32:37.064Z,27.53
2023-01-08T15:35:15.718Z,18.17
2023-01-08T15:37:43.100Z,27.60
2023-01-08T15:40:13.517Z,17.73
2023-01-08T15:42:59.006Z,15.47
2023-01-08T15:45:33.793Z,14.67
2023-01-08T15:48:01.259Z,15.97
2023-01-08T15:50:29.425Z,15.20
2023-01-08T15:52:57.430Z,19.17
2023-01-08T15:55:25.229Z,19.07
2023-01-08T15:57:52.213Z,19.13
2023-01-08T16:00:22.444Z,18.83
2023-01-08T16:02:52.461Z,17.57
2023-01-08T16:05:22.119Z,20.80
2023-01-08T16:07:49.454Z,36.00
2023-01-08T16:10:17.369Z,23.20
2023-01-08T16:12:44.455Z,17.40
2023-01-08T16:15:12.808Z,16.50
2023-01-08T16:17:40.383Z,17.10
2023-01-08T16:20:09.360Z,16.87
2023-01-08T16:22:36.435Z,17.10
2023-01-08T16:25:03.965Z,15.27
2023-01-08T16:27:32.837Z,15.77
2023-01-08T16:30:00.110Z,15.90
2023-01-08T16:32:27.073Z,14.47
2023-01-08T16:34:54.985Z,13.57
2023-01-08T16:37:22.571Z,51.63
2023-01-08T16:39:49.767Z,17.13
2023-01-08T16:42:16.733Z,15.87
2023-01-08T16:44:43.788Z,14.23
2023-01-08T16:47:10.835Z,15.97
2023-01-08T16:49:37.715Z,14.90
2023-01-08T16:52:04.829Z,16.00
2023-01-08T16:54:33.054Z,15.60
2023-01-08T16:57:00.042Z,16.60
2023-01-08T16:59:27.300Z,16.20
2023-01-08T17:01:54.770Z,16.47
2023-01-08T17:04:22.049Z,17.20
2023-01-08T17:06:49.168Z,15.30
2023-01-08T17:09:16.121Z,15.77
2023-01-08T17:11:43.248Z,16.47
2023-01-08T17:14:10.596Z,15.27
2023-01-08T17:16:37.617Z,17.60
2023-01-08T17:19:04.962Z,15.43
2023-01-08T17:21:33.680Z,16.63
2023-01-08T17:24:00.594Z,15.70
2023-01-08T17:26:27.641Z,15.67
2023-01-08T17:28:55.132Z,16.77
2023-01-08T17:31:22.238Z,16.30
2023-01-08T17:33:50.628Z,16.40
2023-01-08T17:36:24.622Z,16.70
2023-01-08T17:38:54.253Z,15.97
2023-01-08T17:41:41.052Z,15.50
2023-01-08T17:44:10.387Z,16.10
2023-01-08T17:46:42.304Z,16.07
2023-01-08T17:49:14.684Z,17.87
2023-01-08T17:51:43.227Z,17.50
2023-01-08T17:54:15.552Z,17.93
2023-01-08T17:56:43.478Z,16.23
2023-01-08T17:59:15.937Z,52.30
2023-01-08T18:01:45.185Z,39.90
2023-01-08T18:04:13.870Z,42.90
2023-01-08T18:06:41.845Z,22.03
2023-01-08T18:09:12.691Z,19.53
2023-01-08T18:11:43.196Z,16.83
2023-01-08T18:14:13.344Z,19.83
2023-01-08T18:16:45.439Z,38.70
2023-01-08T18:19:14.163Z,19.50
2023-01-08T18:21:41.459Z,18.57
2023-01-08T18:24:09.293Z,18.63
2023-01-08T18:26:36.356Z,18.33
2023-01-08T18:29:03.273Z,19.40
2023-01-08T18:31:30.265Z,19.43
2023-01-08T18:33:57.254Z,19.00
2023-01-08T18:36:24.335Z,17.47
2023-01-08T18:38:51.570Z,18.47
2023-01-08T18:41:39.095Z,17.67
2023-01-08T18:44:08.289Z,18.73
2023-01-08T18:46:35.755Z,28.20
2023-01-08T18:49:03.633Z,20.57
2023-01-08T18:51:30.785Z,18.77
2023-01-08T18:53:58.183Z,19.00
2023-01-08T18:56:32.662Z,19.07
2023-01-08T18:59:00.040Z,17.13
2023-01-08T19:01:27.511Z,19.23
2023-01-08T19:03:58.688Z,19.70
2023-01-08T19:06:25.870Z,18.10
2023-01-08T19:08:53.157Z,17.30
2023-01-08T19:11:20.081Z,19.67
2023-01-08T19:13:47.006Z,21.67
2023-01-08T19:16:14.423Z,29.03
2023-01-08T19:18:41.455Z,21.33
2023-01-08T19:21:11.182Z,19.77
2023-01-08T19:23:38.089Z,21.10
2023-01-08T19:26:08.886Z,19.70
2023-01-08T19:28:36.741Z,19.63
2023-01-08T19:31:03.839Z,18.30
2023-01-08T19:33:30.841Z,19.30
2023-01-08T19:36:11.003Z,19.57
2023-01-08T19:38:39.249Z,19.40
2023-01-08T19:41:30.435Z,18.40
2023-01-08T19:43:58.311Z,18.63
2023-01-08T19:46:25.886Z,20.40
2023-01-08T19:48:56.486Z,19.00
2023-01-08T19:51:24.299Z,19.17
2023-01-08T19:53:56.187Z,18.33
2023-01-08T19:56:23.309Z,19.13
2023-01-08T19:58:50.486Z,19.40
2023-01-08T20:01:22.743Z,21.70
2023-01-08T20:03:50.149Z,19.50
2023-01-08T20:06:22.515Z,19.50
2023-01-08T20:08:57.463Z,22.03
2023-01-08T20:11:25.803Z,21.30
2023-01-08T20:13:55.528Z,22.37
2023-01-08T20:16:24.318Z,21.70
2023-01-08T20:18:51.536Z,21.07
2023-01-08T20:21:23.033Z,20.10
2023-01-08T20:23:59.047Z,21.97
2023-01-08T20:26:28.070Z,20.97
2023-01-08T20:28:57.091Z,19.83
2023-01-08T20:31:29.396Z,20.60
2023-01-08T20:34:00.613Z,20.90
2023-01-08T20:36:32.148Z,23.03
2023-01-08T20:39:03.756Z,20.40
2023-01-08T20:41:30.806Z,20.30
2023-01-08T20:43:58.107Z,19.87
2023-01-08T20:46:28.612Z,21.13
2023-01-08T20:48:59.776Z,21.60
2023-01-08T20:51:27.019Z,20.50
2023-01-08T20:53:54.017Z,20.47
2023-01-08T20:56:21.739Z,20.33
2023-01-08T20:58:50.134Z,21.00
2023-01-08T21:01:24.388Z,21.80
2023-01-08T21:03:56.141Z,20.50
2023-01-08T21:06:26.291Z,19.53
2023-01-08T21:08:57.330Z,21.00
2023-01-08T21:11:27.451Z,20.87
2023-01-08T21:13:55.685Z,21.10
2023-01-08T21:16:26.792Z,22.17
2023-01-08T21:18:54.352Z,20.77
2023-01-08T21:21:32.951Z,22.53
2023-01-08T21:24:04.486Z,22.37
2023-01-08T21:26:33.729Z,22.80
2023-01-08T21:29:06.088Z,22.80
2023-01-08T21:31:34.668Z,21.20
2023-01-08T21:34:04.012Z,24.00
2023-01-08T21:36:32.686Z,23.73
2023-01-08T21:39:01.186Z,22.90
2023-01-08T21:41:48.427Z,19.70
2023-01-08T21:44:40.979Z,21.90
2023-01-08T21:47:12.869Z,22.13
2023-01-08T21:49:40.419Z,21.57
2023-01-08T21:52:26.284Z,22.40
2023-01-08T21:54:53.919Z,22.80
2023-01-08T21:57:21.626Z,22.50
2023-01-08T21:59:50.150Z,22.93
2023-01-08T22:02:20.375Z,21.50
2023-01-08T22:04:47.631Z,21.80
2023-01-08T22:07:15.932Z,21.37
2023-01-08T22:09:43.150Z,21.93
2023-01-08T22:12:10.208Z,23.27
2023-01-08T22:14:37.334Z,22.63
2023-01-08T22:17:08.170Z,22.53
2023-01-08T22:19:39.673Z,24.50
2023-01-08T22:22:10.498Z,24.07
2023-01-08T22:24:38.407Z,23.67
2023-01-08T22:27:06.192Z,25.90
2023-01-08T22:29:34.051Z,24.73
2023-01-08T22:32:01.176Z,25.43
2023-01-08T22:34:31.901Z,25.80
2023-01-08T22:36:59.605Z,25.87
2023-01-08T22:39:26.855Z,26.47
2023-01-08T22:41:53.736Z,24.53
2023-01-08T22:44:20.641Z,27.33
2023-01-08T22:46:47.603Z,26.60
2023-01-08T22:49:15.567Z,25.07
2023-01-08T22:51:45.404Z,24.43
2023-01-08T22:54:13.955Z,25.17
2023-01-08T22:56:41.262Z,24.90
2023-01-08T22:59:08.210Z,23.07
2023-01-08T23:01:35.764Z,25.97
2023-01-08T23:04:03.085Z,30.30
2023-01-08T23:06:32.688Z,31.07
2023-01-08T23:09:00.377Z,27.40
2023-01-08T23:11:27.813Z,29.60
2023-01-08T23:13:55.664Z,29.33
2023-01-08T23:16:25.494Z,26.87
2023-01-08T23:18:54.436Z,30.40
2023-01-08T23:21:24.388Z,28.53
2023-01-08T23:23:52.035Z,27.20
2023-01-08T23:26:23.754Z,26.70
2023-01-08T23:28:52.501Z,25.87
2023-01-08T23:31:24.463Z,27.20
2023-01-08T23:33:52.417Z,26.73
2023-01-08T23:36:21.519Z,26.20
2023-01-08T23:38:52.320Z,29.00
2023-01-08T23:41:23.247Z,25.53
2023-01-08T23:43:50.349Z,27.60
2023-01-08T23:46:18.110Z,26.47
2023-01-08T23:48:45.333Z,24.70
2023-01-08T23:51:12.485Z,26.37
2023-01-08T23:53:39.630Z,27.00
2023-01-08T23:56:07.727Z,27.50
2023-01-08T23:58:35.413Z,26.93
